Flight Track Log - Related Links

Times and Time Zones

All times are in EDT time to prevent confusion due to time zone crossing. See the N9373F flight status page for this flight to view local times or setup timezone preferences in your user account.

Time Position Orientation Groundspeed Altitude Reporting Facility
EDT Latitude Longitude Course Direction KTS MPH feet Rate Location/Type
Mon 08:26:35 AM 29.6089 -95.3211 293° West 69 79 2,000  Level Houston Center
Mon 08:27:10 AM 29.6036 -95.3344 246° West 73 84 2,400 655 Climbing Houston Center
Mon 08:27:30 AM 29.6006 -95.3439 250° West 77 89 2,600 590 Climbing Houston Center
Mon 08:28:11 AM 29.5950 -95.3575 245° Southwest 75 86 3,000 492 Climbing Houston Center
Mon 08:28:31 AM 29.5922 -95.3664 250° West 82 94 3,100 97 Climbing Houston Center
Mon 08:29:13 AM 29.5933 -95.3914 273° West 98 113 3,100 98 Level Houston Center
Mon 08:29:32 AM 29.5958 -95.4069 280° West 127 146 3,200  Climbing Houston Center
Mon 08:30:14 AM 29.6017 -95.4283 287° West 113 130 3,100  Descending Houston Center
Mon 08:31:16 AM 29.6164 -95.4647 295° West 121 139 3,200  Climbing Houston Center
Mon 08:31:34 AM 29.6256 -95.4803 304° West 127 146 3,100 -98 Descending Houston Center
Mon 08:32:00 AM 29.7046 -95.4733 293° West  Level FlightAware Approximate
Mon 08:32:17 AM 29.6344 -95.5017 296° West 127 146 3,100  Level Houston Center
Mon 08:32:35 AM 29.6456 -95.5139 316° Northwest 132 152 3,100 194 Level Houston Center
Mon 08:33:19 AM 29.6553 -95.5339 299° West 128 147 3,300  Climbing Houston Center
Mon 08:33:36 AM 29.6614 -95.5506 293° West 129 148 3,100 -197 Descending Houston Center
Mon 08:34:20 AM 29.6750 -95.5739 304° West 123 142 3,100  Level Houston Center
Mon 08:34:38 AM 29.6811 -95.5842 304° West 117 135 3,100 -97 Level Houston Center
Mon 08:35:22 AM 29.6931 -95.6067 301° West 122 140 3,000 197 Descending Houston Center
Mon 08:35:39 AM 29.6986 -95.6158 305° West 121 139 3,300 581 Climbing Houston Center
Mon 08:36:24 AM 29.7139 -95.6339 314° West 117 135 3,600 492 Climbing Houston Center
Mon 08:36:40 AM 29.7200 -95.6422 310° West 105 121 3,800 689 Climbing Houston Center
Mon 08:37:25 AM 29.7261 -95.6608 291° West 101 116 4,300 677 Climbing Houston Center
Mon 08:37:42 AM 29.7289 -95.6700 289° West 92 106 4,500 484 Climbing Houston Center
Mon 08:38:27 AM 29.7353 -95.6886 292° West 95 109 4,800  Climbing Houston Center
Mon 08:38:43 AM 29.7397 -95.7000 294° West 96 110 4,500 -590 Descending Houston Center
Mon 08:39:28 AM 29.7483 -95.7158 302° West 96 110 4,200 -492 Descending Houston Center
Mon 08:39:44 AM 29.7528 -95.7272 294° West 101 116 4,000 -484 Descending Houston Center
Mon 08:40:30 AM 29.7594 -95.7444 294° West 97 112 3,700 -484 Descending Houston Center
Mon 08:40:46 AM 29.7639 -95.7572 292° West 95 109 3,500 -484 Descending Houston Center
Mon 08:41:32 AM 29.7714 -95.7733 298° West 101 116 3,200 2,523 Descending Houston Center
Mon 08:42:33 AM 29.7894 -95.8075 301° West 104 120 8,000 2,341 Climbing Houston Center
Mon 08:43:35 AM 29.8025 -95.8356 298° West 102 117 8,000  Level Houston Center
Mon 08:44:37 AM 29.8131 -95.8617 295° West 97 112 8,000  Level Houston Center
Mon 08:45:39 AM 29.8253 -95.8867 299° West 92 106 8,000  Level Houston Center
Mon 08:46:40 AM 29.8386 -95.9139 299° West 94 108 8,000  Level Houston Center
Mon 08:47:42 AM 29.8533 -95.9467 297° West 104 120 8,000  Level Houston Center
Mon 08:48:44 AM 29.8692 -95.9764 302° West 108 124 8,000  Level Houston Center
Mon 08:49:46 AM 29.8889 -96.0131 302° West 111 128 8,000  Level Houston Center
Mon 08:50:47 AM 29.9008 -96.0383 299° West 107 123 8,000  Level Houston Center
Mon 08:51:50 AM 29.9183 -96.0739 300° West 106 122 8,000  Level Houston Center
Mon 08:52:51 AM 29.9311 -96.1033 297° West 105 121 8,000  Level Houston Center
Mon 08:53:53 AM 29.9436 -96.1319 297° West 104 120 8,000  Level Houston Center
Mon 08:54:55 AM 29.9586 -96.1658 297° West 109 125 8,000  Level Houston Center
Mon 08:55:57 AM 29.9731 -96.1939 301° West 107 123 8,000  Level Houston Center
Mon 08:56:58 AM 29.9867 -96.2247 297° West 106 122 8,000  Level Houston Center
Mon 08:58:00 AM 29.9997 -96.2542 297° West 106 122 8,000  Level Houston Center
Mon 08:59:02 AM 30.0189 -96.2869 304° West 104 120 8,000  Level Houston Center
Mon 09:00:04 AM 30.0303 -96.3175 293° West 104 120 8,000  Level Houston Center
Mon 09:01:06 AM 30.0436 -96.3472 297° West 104 120 8,000  Level Houston Center
Mon 09:02:07 AM 30.0572 -96.3747 300° West 102 117 8,000  Level Houston Center
Mon 09:03:09 AM 30.0742 -96.4033 304° West 103 119 8,000  Level Houston Center
Mon 09:04:11 AM 30.0881 -96.4311 300° West 103 119 8,000  Level Houston Center
Mon 09:05:13 AM 30.1031 -96.4667 296° West 102 117 8,000  Level Houston Center
Mon 09:06:15 AM 30.1156 -96.4967 296° West 103 119 8,000  Level Houston Center
Mon 09:07:17 AM 30.1314 -96.5231 305° West 104 120 8,000  Level Houston Center
Mon 09:08:18 AM 30.1469 -96.5525 301° West 104 120 8,000  Level Houston Center
Mon 09:09:20 AM 30.1625 -96.5897 296° West 106 122 8,000  Level Houston Center
Mon 09:10:22 AM 30.1772 -96.6206 299° West 108 124 8,000  Level Houston Center
Mon 09:11:24 AM 30.1925 -96.6497 301° West 107 123 8,000  Level Houston Center
Mon 09:12:26 AM 30.2078 -96.6786 301° West 106 122 8,000  Level Houston Center
Mon 09:13:28 AM 30.2172 -96.7100 289° West 103 119 8,000  Level Houston Center
Mon 09:14:30 AM 30.2311 -96.7417 297° West 106 122 8,000  Level Houston Center
Mon 09:15:32 AM 30.2508 -96.7694 309° West 109 125 8,000  Level Houston Center
Mon 09:16:34 AM 30.2653 -96.7986 300° West 106 122 8,000  Level Houston Center
Mon 09:17:36 AM 30.2839 -96.8347 301° West 109 125 8,000  Level Houston Center
Mon 09:18:38 AM 30.2969 -96.8669 295° West 108 124 8,000  Level Houston Center
Mon 09:19:40 AM 30.3139 -96.8972 303° West 110 127 8,000  Level Houston Center
Mon 09:20:42 AM 30.3364 -96.9261 312° West 115 132 8,000  Level Houston Center
Mon 09:21:44 AM 30.3608 -96.9528 317° Northwest 118 136 8,000  Level Houston Center
Mon 09:22:46 AM 30.3853 -96.9808 315° West 121 139 8,000  Level Houston Center
Mon 09:23:48 AM 30.4078 -97.0106 311° West 120 138 8,000  Level Houston Center
Mon 09:24:50 AM 30.4314 -97.0439 309° West 117 135 8,000  Level Houston Center
Mon 09:25:52 AM 30.4572 -97.0692 320° Northwest 118 136 8,000  Level Houston Center
Mon 09:26:54 AM 30.4769 -97.0964 310° West 114 131 8,000  Level Houston Center
Mon 09:27:56 AM 30.4986 -97.1256 311° West 115 132 8,000  Level Houston Center
Mon 09:28:58 AM 30.5228 -97.1544 314° West 120 138 8,000  Level Houston Center
Mon 09:30:01 AM 30.5456 -97.1831 313° West 121 139 8,000  Level Houston Center
Mon 09:31:03 AM 30.5672 -97.2136 309° West 121 139 8,000  Level Houston Center
Mon 09:32:05 AM 30.5936 -97.2417 318° Northwest 124 143 8,000  Level Houston Center
Mon 09:33:07 AM 30.6167 -97.2694 314° West 122 140 8,000  Level Houston Center
Mon 09:34:09 AM 30.6458 -97.3008 317° Northwest 121 139 8,000  Level Houston Center
Mon 09:35:11 AM 30.6714 -97.3269 319° Northwest 121 139 8,000  Level Houston Center
Mon 09:36:13 AM 30.6925 -97.3572 309° West 120 138 8,000  Level Houston Center
Mon 09:37:15 AM 30.7147 -97.3875 310° West 120 138 8,000  Level Houston Center
Mon 09:38:17 AM 30.7378 -97.4175 312° West 122 140 8,000  Level Houston Center
Mon 09:39:19 AM 30.7586 -97.4475 309° West 120 138 8,000  Level Houston Center
Mon 09:40:21 AM 30.7844 -97.4736 319° Northwest 120 138 8,000  Level Houston Center
Mon 09:41:23 AM 30.8081 -97.5019 314° West 120 138 8,000  Level Houston Center
Mon 09:42:24 AM 30.8378 -97.5356 316° Northwest 123 142 8,000  Level Houston Center
Mon 09:43:26 AM 30.8611 -97.5672 311° West 125 144 8,000  Level Houston Center
Mon 09:44:28 AM 30.8642 -97.6014 276° West 110 127 8,000  Level Houston Center
Mon 09:45:30 AM 30.8686 -97.6358 279° West 108 124 8,000  Level Houston Center
Mon 09:46:32 AM 30.8642 -97.6628 259° West 94 108 8,000  Level Houston Center
Mon 09:47:34 AM 30.8411 -97.6628 180° South 88 101 8,000  Level Houston Center
Mon 09:48:36 AM 30.8186 -97.6644 184° South 82 94 8,000  Level Houston Center
Mon 09:49:38 AM 30.7944 -97.6678 187° South 83 96 8,000  Level Houston Center
Mon 09:50:40 AM 30.7664 -97.6686 181° South 85 98 8,000  Level Houston Center
Mon 09:51:42 AM 30.7450 -97.6714 186° South 82 94 8,000  Level Houston Center
Mon 09:52:44 AM 30.7269 -97.6756 191° South 73 84 8,000  Level Houston Center
Mon 09:53:46 AM 30.7086 -97.6767 183° South 68 78 8,000  Level Houston Center
Mon 09:54:48 AM 30.6925 -97.6764 179° South 62 71 8,000  Level Houston Center

Login

Don't have an account? Register now (free) for customized features, flight alerts, and more!